Petersburg, AK

12:01 PM AKST on February 27, 2017 (GMT -0900)
Johnson Petersburg | | Change Station
Active Advisory: Winter Weather Advisory

Elev 105 ft 56.80 °N, 132.95 °W | Updated 5 minutes ago

Partly Cloudy
Partly Cloudy
34 °F
Feels Like 30 °F
N
5
Wind Variable Wind from NE

Today
High -- | Low -- °F
--% Chance of Precip.
Yesterday
High -- | Low -- °F
Precip. -- in
Pressure 29.85 in
Visibility 10.0 miles
Clouds Few 5500 ft
Windchill 30 °F
Dew Point 19 °F
Humidity 56%
Rainfall 0.00 in
Snow Depth Not available.
6:48 AM 5:21 PM
New Moon, 2% visible
METAR PAPG 272056Z 05004KT 10SM FEW055 01/M07 A2985 RMK AO1 57007
Pressure 29.85 in
Visibility 10.0 miles
Clouds Few 5500 ft
Windchill 30 °F
Dew Point 19 °F
Humidity 56%
Rainfall 0.00 in
Snow Depth Not available.
6:48 AM 5:21 PM
New Moon, 2% visible
METAR PAPG 272056Z 05004KT 10SM FEW055 01/M07 A2985 RMK AO1 57007

Get Your Daily Forecast Email!

Thanks for signing up!

Be on the lookout for a verification email in your inbox.

You'll start receiving the daily forecast at 8 AM.

×

10-Day Weather Forecast

Almanac

Astronomy

Feb. 27, 2017 Rise Set
Actual Time
Civil Twilight
Nautical Twilight
Astronomical Twilight
Moon
Length of Visible Light
Length of Day
Tomorrow will be .
, % of the Moon is Illuminated

Today's Extremes

State Highs State Lows

Community

WunderPhotos

Upload Photos

1,962,540 photos uploaded!

WunderBlog® & News

Nearby

Air Quality

  Air Quality AQ Index Pollutant
Not available.

Snow Depth

Station Depth Elevation

Earthquake Activity

City Distance Mag. Time & Date
Minimum magnitude displayed is 2.5.

Coastal Water Temperatures

Place Temperature

Stations

Nearby Weather Stations

Station Location Temp. Windchill Dew Point Humidity Wind Precip. Elev Updated Type
                   

Watches & Warnings

Winter Weather Advisory
Issued: 4:44 AM AKST Feb. 27, 2017 – National Weather Service

... Winter Weather Advisory in effect from 3 am to 6 PM akst
Tuesday...

The National Weather Service in Juneau has issued a Winter
Weather Advisory... which is in effect from 3 am to 6 PM akst
Tuesday.

* Location... southern Panhandle.

* Snow... 2 to 5 inches.

* Timing... snow will begin early Tuesday morning then taper off
Tuesday morning.

* Impacts... travel will be hazardous.

Precautionary/preparedness actions...

An advisory means that a potentially hazardous event is already
occurring or imminent.

This statement will be updated by 4 PM akst Monday or sooner if
conditions warrant.